Time;durP1;ratioP1;P1;durP2;ratioP2;P2;SDS_P1;SDS_P2;PMS_P1;PMS_P2;Temp;Humidity;BMP_temperature;BMP_pressure;BME280_temperature;BME280_humidity;BME280_pressure;Samples;Min_cycle;Max_cycle;Signal;HPM_P1;HPM_P2
2023/03/23 00:00:32;;;;;;;2.22;1.50;;;;;;;6.59;100.00;92512.66;2122666;27;20023;-76
2023/03/23 00:01:43;;;;;;;2.50;1.38;;;;;;;6.54;100.00;92516.53;2117701;27;20030;-76
2023/03/23 00:02:45;;;;;;;3.25;1.60;;;;;;;6.57;100.00;92518.34;2121787;27;20031;-75
2023/03/23 00:03:49;;;;;;;3.78;1.75;;;;;;;6.46;100.00;92517.78;2121711;27;20505;-75
2023/03/23 00:04:51;;;;;;;2.13;1.70;;;;;;;6.46;100.00;92512.50;2113518;27;20024;-77
2023/03/23 00:05:59;;;;;;;3.83;1.40;;;;;;;6.44;100.00;92514.78;2121431;27;20035;-76
2023/03/23 00:07:02;;;;;;;4.70;1.73;;;;;;;6.61;100.00;92518.31;2121199;27;20038;-77
2023/03/23 00:08:06;;;;;;;3.38;1.48;;;;;;;6.63;100.00;92512.59;2121996;27;20472;-76
2023/03/23 00:09:15;;;;;;;4.47;1.77;;;;;;;6.57;100.00;92509.66;2118428;27;20038;-77
2023/03/23 00:10:21;;;;;;;3.47;1.50;;;;;;;6.53;100.00;92512.34;2121726;27;20060;-77
2023/03/23 00:11:29;;;;;;;3.22;1.70;;;;;;;6.71;100.00;92508.66;2122352;27;20404;-76
2023/03/23 00:12:35;;;;;;;2.70;1.33;;;;;;;6.63;100.00;92513.34;2131485;27;20023;-76
2023/03/23 00:13:38;;;;;;;2.28;1.40;;;;;;;6.49;100.00;92516.22;2126773;27;20433;-76
2023/03/23 00:14:42;;;;;;;1.77;1.42;;;;;;;6.44;100.00;92506.06;2130927;27;20066;-76
2023/03/23 00:15:44;;;;;;;3.90;1.40;;;;;;;6.39;100.00;92507.28;2130930;27;20027;-76
2023/03/23 00:16:45;;;;;;;1.60;1.30;;;;;;;6.33;100.00;92506.25;2120962;27;20476;-76
2023/03/23 00:17:47;;;;;;;2.63;1.52;;;;;;;6.37;100.00;92514.16;2112985;27;20079;-76
2023/03/23 00:18:53;;;;;;;2.50;1.40;;;;;;;6.29;100.00;92513.50;2121823;27;20117;-75
2023/03/23 00:19:55;;;;;;;1.63;1.27;;;;;;;6.28;100.00;92506.72;2131104;27;20035;-76
2023/03/23 00:20:58;;;;;;;2.08;1.48;;;;;;;6.29;100.00;92510.84;2131046;27;21313;-75
2023/03/23 00:22:01;;;;;;;3.13;1.23;;;;;;;6.19;100.00;92506.44;2131014;27;20065;-75
2023/03/23 00:23:03;;;;;;;3.38;1.60;;;;;;;6.20;100.00;92503.41;2130591;27;20033;-76
2023/03/23 00:24:16;;;;;;;3.42;1.52;;;;;;;6.16;100.00;92509.94;2121519;27;20023;-75
2023/03/23 00:25:18;;;;;;;3.03;1.48;;;;;;;6.20;100.00;92502.66;2121264;27;20027;-76
2023/03/23 00:26:19;;;;;;;2.78;1.30;;;;;;;6.19;100.00;92504.56;2131256;27;20034;-76
2023/03/23 00:27:24;;;;;;;2.15;1.20;;;;;;;6.16;100.00;92492.09;2132200;27;20030;-75
2023/03/23 00:28:26;;;;;;;2.67;1.40;;;;;;;6.14;100.00;92496.28;2132491;27;20086;-76
2023/03/23 00:29:27;;;;;;;2.70;1.52;;;;;;;6.14;100.00;92497.03;2128563;27;20139;-76
2023/03/23 00:30:29;;;;;;;2.10;1.52;;;;;;;6.15;100.00;92487.94;2131233;27;20054;-76
2023/03/23 00:31:34;;;;;;;4.00;1.95;;;;;;;6.21;100.00;92485.59;2131099;27;20039;-77
2023/03/23 00:32:36;;;;;;;2.60;1.40;;;;;;;6.23;100.00;92491.22;2131197;27;20515;-76
2023/03/23 00:33:38;;;;;;;3.58;1.50;;;;;;;6.25;100.00;92491.59;2121308;27;20031;-76
2023/03/23 00:34:42;;;;;;;3.30;1.27;;;;;;;6.21;100.00;92485.59;2121381;27;20031;-76
2023/03/23 00:35:44;;;;;;;3.03;1.58;;;;;;;6.16;100.00;92496.66;2121546;27;20116;-76
2023/03/23 00:36:56;;;;;;;4.00;1.52;;;;;;;6.15;100.00;92487.22;2120998;27;20027;-78
2023/03/23 00:37:59;;;;;;;4.00;1.40;;;;;;;6.09;100.00;92492.19;2123838;27;20481;-76
2023/03/23 00:39:03;;;;;;;3.08;1.40;;;;;;;6.04;100.00;92493.41;2130867;27;20464;-76
2023/03/23 00:40:10;;;;;;;3.85;1.60;;;;;;;6.04;100.00;92480.13;2117214;27;20028;-76
2023/03/23 00:41:12;;;;;;;2.88;1.60;;;;;;;6.07;100.00;92481.25;2114377;27;20529;-76
2023/03/23 00:42:16;;;;;;;2.30;1.40;;;;;;;6.00;100.00;92495.34;2125376;27;20039;-77
2023/03/23 00:43:19;;;;;;;4.60;1.65;;;;;;;6.03;100.00;92483.19;2123972;27;20042;-76
2023/03/23 00:44:23;;;;;;;3.58;1.40;;;;;;;6.00;100.00;92486.66;2106135;28;20047;-78
2023/03/23 00:45:24;;;;;;;3.63;1.35;;;;;;;5.92;100.00;92478.03;2109049;27;20142;-76
2023/03/23 00:46:27;;;;;;;3.13;1.70;;;;;;;5.92;100.00;92486.00;2121938;27;20571;-77
2023/03/23 00:47:30;;;;;;;2.88;1.67;;;;;;;6.00;100.00;92486.66;2122358;27;20507;-78
2023/03/23 00:48:32;;;;;;;1.65;1.30;;;;;;;5.98;100.00;92487.06;2122191;27;20034;-77
2023/03/23 00:49:34;;;;;;;2.72;1.40;;;;;;;6.06;100.00;92482.41;2121847;27;20055;-78
2023/03/23 00:50:36;;;;;;;3.28;1.50;;;;;;;6.02;100.00;92474.50;2124546;27;20023;-76
2023/03/23 00:51:37;;;;;;;2.72;1.52;;;;;;;6.01;100.00;92483.63;2117687;27;20042;-76
2023/03/23 00:52:38;;;;;;;3.63;1.42;;;;;;;6.01;100.00;92477.53;2117083;27;20026;-77
2023/03/23 00:53:40;;;;;;;2.45;1.58;;;;;;;6.07;100.00;92483.16;2117186;27;20115;-77
2023/03/23 00:54:41;;;;;;;3.72;1.60;;;;;;;6.24;100.00;92476.81;2116750;27;20026;-78
2023/03/23 00:55:42;;;;;;;2.40;1.65;;;;;;;6.20;100.00;92473.47;2116767;27;20767;-77
2023/03/23 00:56:46;;;;;;;2.95;1.50;;;;;;;6.19;100.00;92485.22;2118409;27;20504;-77
2023/03/23 00:57:51;;;;;;;3.38;1.73;;;;;;;6.20;100.00;92478.78;2121769;27;20031;-77
2023/03/23 00:58:56;;;;;;;2.35;1.70;;;;;;;6.18;100.00;92479.16;2121890;27;20027;-78
2023/03/23 01:00:00;;;;;;;1.77;1.60;;;;;;;6.06;100.00;92479.75;2121587;27;20054;-77
2023/03/23 01:01:02;;;;;;;2.88;1.75;;;;;;;6.05;100.00;92478.22;2121782;27;20031;-77
2023/03/23 01:02:03;;;;;;;3.10;1.75;;;;;;;6.06;100.00;92469.16;2117074;27;20027;-77
2023/03/23 01:03:06;;;;;;;3.15;1.50;;;;;;;6.09;100.00;92473.63;2117221;27;20104;-77
2023/03/23 01:04:12;;;;;;;2.53;1.50;;;;;;;6.13;100.00;92484.19;2113957;27;20027;-76
2023/03/23 01:05:23;;;;;;;1.90;1.50;;;;;;;6.08;100.00;92477.44;2108048;27;20129;-77
2023/03/23 01:06:30;;;;;;;2.45;1.60;;;;;;;6.13;100.00;92473.56;2106211;28;20551;-76
2023/03/23 01:07:32;;;;;;;2.03;1.50;;;;;;;6.21;100.00;92474.97;2114418;27;20118;-77
2023/03/23 01:08:36;;;;;;;2.35;1.40;;;;;;;6.21;100.00;92474.97;2121555;27;20062;-76
2023/03/23 01:09:39;;;;;;;1.52;1.30;;;;;;;6.33;100.00;92482.38;2117552;27;20024;-76
2023/03/23 01:10:42;;;;;;;3.10;1.60;;;;;;;6.56;100.00;92471.72;2123929;27;20047;-78
2023/03/23 01:11:47;;;;;;;1.90;1.70;;;;;;;6.41;100.00;92475.00;2125093;27;20039;-77
2023/03/23 01:12:50;;;;;;;3.05;1.50;;;;;;;6.29;100.00;92477.09;2118258;27;20099;-77
2023/03/23 01:13:54;;;;;;;1.95;1.50;;;;;;;6.39;100.00;92474.69;2116897;27;20137;-77
2023/03/23 01:14:55;;;;;;;1.70;1.60;;;;;;;6.35;100.00;92474.72;2111184;27;20084;-77
2023/03/23 01:15:56;;;;;;;1.92;1.40;;;;;;;6.29;100.00;92465.75;2122529;27;20039;-77
2023/03/23 01:17:01;;;;;;;2.35;1.33;;;;;;;6.25;100.00;92473.00;2123009;27;20038;-77
2023/03/23 01:18:03;;;;;;;3.15;1.38;;;;;;;6.45;100.00;92467.75;2116202;27;20069;-78
2023/03/23 01:19:04;;;;;;;1.50;1.35;;;;;;;6.52;100.00;92468.38;2108212;28;20085;-76
2023/03/23 01:20:07;;;;;;;2.10;1.60;;;;;;;6.42;100.00;92464.00;2116583;27;20053;-77
2023/03/23 01:21:11;;;;;;;1.92;1.70;;;;;;;6.37;100.00;92469.03;2112972;28;20035;-76
2023/03/23 01:22:16;;;;;;;1.75;1.50;;;;;;;6.30;100.00;92470.63;2117076;27;20538;-77
2023/03/23 01:23:24;;;;;;;1.77;1.30;;;;;;;6.38;100.00;92465.22;2121705;27;20042;-76
2023/03/23 01:24:27;;;;;;;4.38;1.65;;;;;;;6.36;100.00;92470.91;2117088;27;20470;-76
2023/03/23 01:25:37;;;;;;;2.75;1.40;;;;;;;6.35;100.00;92466.78;2113674;27;20031;-77
2023/03/23 01:26:39;;;;;;;1.48;1.35;;;;;;;6.29;100.00;92466.50;2103859;28;20462;-77
2023/03/23 01:27:41;;;;;;;2.85;1.75;;;;;;;6.27;100.00;92462.72;2117053;27;20672;-77
2023/03/23 01:28:43;;;;;;;2.38;1.70;;;;;;;6.41;100.00;92464.41;2116692;27;20043;-77
2023/03/23 01:29:49;;;;;;;4.90;2.00;;;;;;;6.38;100.00;92465.22;2116579;27;20035;-77
2023/03/23 01:30:51;;;;;;;2.17;1.70;;;;;;;6.30;100.00;92461.94;2109974;28;20028;-77
2023/03/23 01:31:53;;;;;;;3.83;1.92;;;;;;;6.28;100.00;92469.56;2104516;28;20036;-76
2023/03/23 01:32:55;;;;;;;2.53;1.80;;;;;;;6.26;100.00;92469.94;2116918;27;20110;-76
2023/03/23 01:33:56;;;;;;;3.05;1.65;;;;;;;6.33;100.00;92463.03;2120228;27;20039;-77
2023/03/23 01:34:59;;;;;;;2.33;1.60;;;;;;;6.35;100.00;92468.69;2115954;27;20046;-77
2023/03/23 01:36:11;;;;;;;3.22;1.83;;;;;;;6.33;100.00;92466.44;2116107;27;20394;-77
2023/03/23 01:37:16;;;;;;;2.28;1.73;;;;;;;6.35;100.00;92471.34;2121572;27;20079;-76
2023/03/23 01:38:17;;;;;;;2.78;1.80;;;;;;;6.43;100.00;92457.53;2121902;27;20037;-76
2023/03/23 01:39:20;;;;;;;4.00;2.10;;;;;;;6.39;100.00;92454.19;2122169;27;20092;-77
2023/03/23 01:40:24;;;;;;;2.80;1.67;;;;;;;6.34;100.00;92454.66;2120023;27;20042;-76
2023/03/23 01:41:25;;;;;;;4.70;1.52;;;;;;;6.35;100.00;92453.50;2121548;27;20027;-77
2023/03/23 01:42:48;;;;;;;2.55;1.85;;;;;;;6.32;100.00;92443.69;2129129;27;20060;-76
2023/03/23 01:44:30;;;;;;;3.33;2.00;;;;;;;6.40;100.00;92446.97;2122598;27;20030;-77
2023/03/23 01:45:34;;;;;;;5.22;1.98;;;;;;;6.37;100.00;92447.81;2119084;27;20505;-77
2023/03/23 01:46:36;;;;;;;2.90;2.10;;;;;;;6.63;100.00;92441.66;2112749;28;20019;-76
2023/03/23 01:47:38;;;;;;;3.55;1.75;;;;;;;6.45;100.00;92444.63;2112876;27;20027;-77
2023/03/23 01:48:40;;;;;;;2.67;1.73;;;;;;;6.41;100.00;92440.50;2112133;28;20035;-77
2023/03/23 01:49:46;;;;;;;2.55;1.90;;;;;;;6.62;100.00;92439.41;2104282;28;20810;-76
2023/03/23 01:51:07;;;;;;;2.47;1.75;;;;;;;6.51;100.00;92439.59;2121773;27;20032;-76
2023/03/23 01:52:23;;;;;;;2.65;1.92;;;;;;;6.49;100.00;92436.56;2113716;27;20110;-76
2023/03/23 01:53:30;;;;;;;2.72;1.98;;;;;;;6.39;100.00;92440.19;2121004;27;20031;-77
2023/03/23 01:54:35;;;;;;;3.70;1.60;;;;;;;6.34;100.00;92443.31;2121887;27;20435;-77
2023/03/23 01:55:40;;;;;;;3.55;2.08;;;;;;;6.34;100.00;92440.66;2128705;27;20455;-77
2023/03/23 01:56:50;;;;;;;2.83;1.90;;;;;;;6.33;100.00;92434.59;2122064;27;20038;-76
2023/03/23 01:57:52;;;;;;;5.38;1.85;;;;;;;6.33;100.00;92433.84;2114846;27;20058;-77
2023/03/23 01:58:55;;;;;;;3.80;1.77;;;;;;;6.33;100.00;92437.25;2130306;27;20038;-76
2023/03/23 02:00:06;;;;;;;2.85;1.70;;;;;;;6.36;100.00;92439.06;2125753;27;20457;-77
2023/03/23 02:01:11;;;;;;;2.67;1.88;;;;;;;6.42;100.00;92429.50;2120463;27;20033;-76
2023/03/23 02:02:14;;;;;;;2.17;1.92;;;;;;;6.38;100.00;92439.44;2121217;27;20031;-77
2023/03/23 02:03:17;;;;;;;2.88;2.20;;;;;;;6.36;100.00;92435.66;2120502;27;20412;-77
2023/03/23 02:04:21;;;;;;;4.97;1.90;;;;;;;6.29;100.00;92439.94;2125473;27;20031;-77
2023/03/23 02:05:29;;;;;;;3.53;2.00;;;;;;;6.24;100.00;92434.38;2118429;27;20044;-77
2023/03/23 02:06:31;;;;;;;3.05;2.00;;;;;;;6.22;100.00;92436.66;2120209;27;20035;-77
2023/03/23 02:07:33;;;;;;;2.35;2.08;;;;;;;6.21;100.00;92432.50;2120521;27;20034;-76
2023/03/23 02:08:35;;;;;;;3.97;1.90;;;;;;;6.15;100.00;92434.88;2121012;27;20080;-76
2023/03/23 02:09:36;;;;;;;4.05;1.92;;;;;;;6.17;100.00;92429.16;2121016;27;20080;-78
2023/03/23 02:10:38;;;;;;;3.60;2.03;;;;;;;6.14;100.00;92430.72;2112830;27;20027;-76
2023/03/23 02:11:39;;;;;;;2.58;1.88;;;;;;;6.07;100.00;92436.16;2128982;27;20031;-75
2023/03/23 02:12:40;;;;;;;4.32;2.20;;;;;;;6.08;100.00;92434.25;2125348;27;20027;-76
2023/03/23 02:13:43;;;;;;;3.20;2.00;;;;;;;6.16;100.00;92431.06;2122344;27;20031;-76
2023/03/23 02:14:45;;;;;;;2.78;1.55;;;;;;;6.16;100.00;92436.38;2120893;27;20031;-77
2023/03/23 02:15:57;;;;;;;6.13;1.80;;;;;;;6.17;100.00;92432.56;2112424;28;20473;-76
2023/03/23 02:17:04;;;;;;;5.93;2.00;;;;;;;6.15;100.00;92428.84;2122127;27;20050;-77
2023/03/23 02:18:28;;;;;;;4.55;1.88;;;;;;;6.19;100.00;92426.84;2125780;27;20054;-76
2023/03/23 02:19:41;;;;;;;4.53;1.88;;;;;;;6.18;100.00;92426.09;2125685;27;20107;-76
2023/03/23 02:21:22;;;;;;;2.83;1.90;;;;;;;6.16;100.00;92414.41;2122957;27;20543;-75
2023/03/23 02:22:49;;;;;;;2.97;2.03;;;;;;;6.20;100.00;92413.19;2117843;27;20032;-76
2023/03/23 02:24:04;;;;;;;2.28;2.00;;;;;;;6.34;100.00;92414.09;2123907;27;20473;-75
2023/03/23 02:25:26;;;;;;;3.33;2.10;;;;;;;6.30;100.00;92414.91;2130417;27;20034;-75
2023/03/23 02:26:47;;;;;;;2.10;1.77;;;;;;;6.39;100.00;92411.72;2124410;27;20397;-76
2023/03/23 02:28:04;;;;;;;2.85;1.75;;;;;;;6.50;100.00;92425.56;2123511;27;20066;-76
2023/03/23 02:29:11;;;;;;;3.65;1.95;;;;;;;6.54;100.00;92418.28;2130108;27;20027;-76
2023/03/23 02:30:34;;;;;;;3.65;2.05;;;;;;;6.50;100.00;92414.22;2129292;27;20098;-76
2023/03/23 02:32:05;;;;;;;2.60;1.92;;;;;;;6.52;100.00;92420.59;2125968;27;20023;-76
2023/03/23 02:33:26;;;;;;;3.17;2.25;;;;;;;6.45;100.00;92427.94;2113225;28;20177;-76
2023/03/23 02:34:54;;;;;;;2.63;2.20;;;;;;;6.44;100.00;92408.59;2115035;28;20532;-76
2023/03/23 02:36:11;;;;;;;2.53;2.20;;;;;;;6.45;100.00;92401.38;2115415;28;20046;-76
2023/03/23 02:37:41;;;;;;;4.57;2.03;;;;;;;6.39;100.00;92392.41;2109234;27;20036;-77
2023/03/23 02:39:22;;;;;;;2.75;1.75;;;;;;;6.37;100.00;92384.84;2128524;27;20489;-75
2023/03/23 02:40:39;;;;;;;2.97;2.10;;;;;;;6.36;100.00;92385.25;2091151;28;20041;-76
2023/03/23 02:41:55;;;;;;;3.47;1.95;;;;;;;6.42;100.00;92387.03;2117150;28;20032;-75
2023/03/23 02:43:03;;;;;;;3.13;2.00;;;;;;;6.53;100.00;92392.13;2125060;28;20027;-76
2023/03/23 02:44:06;;;;;;;2.53;2.20;;;;;;;6.49;100.00;92394.84;2128650;28;20020;-75
2023/03/23 02:45:12;;;;;;;3.10;2.03;;;;;;;6.49;100.00;92389.53;2123591;28;20672;-75
2023/03/23 02:46:17;;;;;;;4.22;2.17;;;;;;;6.46;100.00;92392.28;2120296;28;20063;-77
2023/03/23 02:47:23;;;;;;;3.03;2.00;;;;;;;6.39;100.00;92385.19;2123359;28;20065;-75
2023/03/23 02:48:33;;;;;;;3.72;2.15;;;;;;;6.33;100.00;92388.72;2123442;28;20031;-75
2023/03/23 02:49:38;;;;;;;3.17;1.90;;;;;;;6.26;100.00;92386.94;2117591;28;20031;-76
2023/03/23 02:50:43;;;;;;;2.60;2.08;;;;;;;6.22;100.00;92383.59;2119671;28;20035;-73
2023/03/23 02:51:48;;;;;;;2.13;1.83;;;;;;;6.20;100.00;92378.69;2128502;28;20028;-73
2023/03/23 02:52:52;;;;;;;3.80;1.90;;;;;;;6.13;100.00;92383.38;2123403;28;20068;-74
2023/03/23 02:54:00;;;;;;;2.35;1.80;;;;;;;6.16;100.00;92385.97;2123370;28;20074;-74
2023/03/23 02:55:04;;;;;;;4.60;2.28;;;;;;;6.13;100.00;92393.97;2126554;28;20039;-76
2023/03/23 02:56:10;;;;;;;2.70;2.08;;;;;;;6.12;100.00;92392.50;2125049;28;20118;-75
2023/03/23 02:57:13;;;;;;;3.13;2.10;;;;;;;6.07;100.00;92385.75;2115138;28;20027;-74
2023/03/23 02:58:17;;;;;;;3.35;2.10;;;;;;;6.02;100.00;92389.59;2116945;28;20035;-74
2023/03/23 02:59:24;;;;;;;3.58;2.05;;;;;;;5.98;100.00;92388.91;2125286;27;20676;-75
2023/03/23 03:00:25;;;;;;;3.05;2.10;;;;;;;5.95;100.00;92388.97;2125696;27;20095;-75
2023/03/23 03:01:32;;;;;;;3.88;2.10;;;;;;;5.87;100.00;92390.94;2125474;27;20062;-75
2023/03/23 03:02:36;;;;;;;3.35;2.50;;;;;;;5.89;100.00;92390.56;2125985;27;20031;-75
2023/03/23 03:03:37;;;;;;;4.10;2.20;;;;;;;5.84;100.00;92391.78;2112147;28;20072;-75
2023/03/23 03:04:41;;;;;;;3.13;2.05;;;;;;;5.80;100.00;92389.16;2113103;28;20047;-76
2023/03/23 03:06:08;;;;;;;2.25;2.05;;;;;;;5.73;100.00;92386.63;2125137;27;20042;-76
2023/03/23 03:07:22;;;;;;;4.18;2.58;;;;;;;5.75;100.00;92379.03;2121611;27;20031;-75
2023/03/23 03:08:33;;;;;;;2.83;2.28;;;;;;;5.79;100.00;92374.41;2125448;27;20538;-76
2023/03/23 03:09:53;;;;;;;2.85;2.25;;;;;;;5.75;100.00;92370.28;2129559;27;20035;-78
2023/03/23 03:11:08;;;;;;;;;;;;;;;5.78;100.00;92374.81;2130531;27;20019;-77
2023/03/23 03:12:34;;;;;;;5.18;1.95;;;;;;;5.80;100.00;92365.31;2125315;27;19914;-78
2023/03/23 03:13:44;;;;;;;2.85;2.17;;;;;;;5.80;100.00;92372.50;2128186;27;20365;-78
2023/03/23 03:14:58;;;;;;;3.70;2.13;;;;;;;5.82;100.00;92370.19;2111133;27;20058;-77
2023/03/23 03:16:28;;;;;;;4.28;2.10;;;;;;;5.86;100.00;92370.16;2106680;27;20107;-77
2023/03/23 03:17:31;;;;;;;2.30;1.88;;;;;;;5.80;100.00;92375.91;2113818;27;20055;-78
2023/03/23 03:18:43;;;;;;;3.35;1.60;;;;;;;5.84;100.00;92364.47;2117935;27;20118;-76
2023/03/23 03:19:49;;;;;;;2.25;1.80;;;;;;;5.85;100.00;92374.69;2121842;27;20035;-78
2023/03/23 03:21:06;;;;;;;2.20;1.83;;;;;;;5.94;100.00;92377.59;2101146;28;20507;-77
2023/03/23 03:22:09;;;;;;;3.50;1.90;;;;;;;5.94;100.00;92382.91;2109525;27;20035;-77
2023/03/23 03:23:15;;;;;;;5.32;2.00;;;;;;;5.89;100.00;92382.59;2109383;28;20535;-77
2023/03/23 03:24:21;;;;;;;4.97;1.90;;;;;;;5.91;100.00;92375.72;2115453;27;20028;-78
2023/03/23 03:25:25;;;;;;;3.38;1.80;;;;;;;5.93;100.00;92373.47;2123302;27;20047;-77
2023/03/23 03:26:28;;;;;;;6.10;2.03;;;;;;;5.90;100.00;92384.09;2122909;27;20138;-78
2023/03/23 03:27:31;;;;;;;3.97;1.85;;;;;;;5.91;100.00;92381.03;2125352;27;20037;-78
2023/03/23 03:28:34;;;;;;;2.33;2.13;;;;;;;5.95;100.00;92381.75;2116814;27;20031;-77
2023/03/23 03:29:41;;;;;;;2.75;2.00;;;;;;;5.99;100.00;92379.06;2110073;28;20034;-76
2023/03/23 03:30:46;;;;;;;3.42;1.70;;;;;;;6.05;100.00;92378.16;2115768;27;20564;-77
2023/03/23 03:31:51;;;;;;;3.35;2.13;;;;;;;6.17;100.00;92386.72;2122780;27;20031;-77
2023/03/23 03:32:54;;;;;;;4.10;2.50;;;;;;;6.24;100.00;92379.38;2122404;27;20031;-77
2023/03/23 03:33:56;;;;;;;2.78;2.33;;;;;;;6.32;100.00;92374.69;2123143;27;20084;-76
2023/03/23 03:35:03;;;;;;;3.33;2.25;;;;;;;6.37;100.00;92381.44;2122828;27;20037;-77
2023/03/23 03:36:08;;;;;;;2.83;2.38;;;;;;;6.37;100.00;92376.88;2118992;27;20115;-76
2023/03/23 03:37:11;;;;;;;3.15;2.25;;;;;;;6.38;100.00;92373.06;2107357;27;20494;-76
2023/03/23 03:38:12;;;;;;;3.35;2.28;;;;;;;6.41;100.00;92380.22;2126899;27;20504;-77
2023/03/23 03:39:15;;;;;;;3.25;2.25;;;;;;;6.43;100.00;92379.81;2120380;27;20031;-76
2023/03/23 03:40:19;;;;;;;4.10;2.28;;;;;;;6.44;100.00;92374.09;2125665;27;20505;-77
2023/03/23 03:41:20;;;;;;;5.95;2.45;;;;;;;6.44;100.00;92371.44;2126503;27;20042;-76
2023/03/23 03:42:22;;;;;;;3.13;2.28;;;;;;;6.49;100.00;92365.66;2127655;27;20041;-76
2023/03/23 03:43:23;;;;;;;2.80;2.10;;;;;;;6.47;100.00;92360.00;2128395;27;20045;-76
2023/03/23 03:44:24;;;;;;;3.67;1.90;;;;;;;6.49;100.00;92362.25;2130983;27;20532;-76
2023/03/23 03:45:25;;;;;;;2.88;2.45;;;;;;;6.45;100.00;92356.25;2124140;27;20035;-76
2023/03/23 03:46:29;;;;;;;4.32;2.38;;;;;;;6.60;100.00;92362.81;2126424;27;20102;-77
2023/03/23 03:47:31;;;;;;;3.28;2.20;;;;;;;6.50;100.00;92359.19;2126485;27;20101;-77
2023/03/23 03:48:33;;;;;;;3.38;2.50;;;;;;;6.46;100.00;92355.88;2126127;27;20053;-76
2023/03/23 03:49:35;;;;;;;3.47;2.33;;;;;;;6.43;100.00;92361.22;2126437;27;20035;-76
2023/03/23 03:50:37;;;;;;;4.25;2.63;;;;;;;6.44;100.00;92366.13;2130758;27;20031;-76
2023/03/23 03:51:40;;;;;;;4.65;2.30;;;;;;;6.64;100.00;92362.75;2126496;27;20031;-76
2023/03/23 03:52:42;;;;;;;5.13;2.20;;;;;;;6.70;100.00;92363.75;2131470;27;20115;-77
2023/03/23 03:53:44;;;;;;;2.95;2.40;;;;;;;6.64;100.00;92357.44;2131198;27;20066;-74
2023/03/23 03:54:46;;;;;;;2.85;2.13;;;;;;;6.60;100.00;92364.72;2131420;27;20027;-77
2023/03/23 03:55:48;;;;;;;2.08;1.90;;;;;;;6.62;100.00;92367.69;2130869;27;20019;-76
2023/03/23 03:56:51;;;;;;;4.18;2.35;;;;;;;6.61;100.00;92358.25;2130736;27;20037;-76
2023/03/23 03:57:52;;;;;;;3.05;2.05;;;;;;;6.65;100.00;92364.97;2131443;27;20023;-76
2023/03/23 03:58:55;;;;;;;2.90;2.38;;;;;;;6.74;100.00;92362.53;2131119;27;20033;-77
2023/03/23 03:59:56;;;;;;;4.13;2.47;;;;;;;6.77;100.00;92360.97;2131259;27;20027;-77
2023/03/23 04:00:59;;;;;;;3.42;2.20;;;;;;;6.70;100.00;92361.84;2131419;27;20048;-75
2023/03/23 04:02:01;;;;;;;4.05;2.30;;;;;;;6.69;100.00;92357.69;2131359;27;20090;-77
2023/03/23 04:03:02;;;;;;;3.55;2.65;;;;;;;6.93;100.00;92358.34;2130821;27;20026;-77
2023/03/23 04:04:06;;;;;;;3.20;2.30;;;;;;;6.92;100.00;92356.84;2126399;27;20552;-76
2023/03/23 04:05:09;;;;;;;3.78;2.25;;;;;;;6.86;100.00;92349.78;2126744;27;20039;-75
2023/03/23 04:06:14;;;;;;;5.47;2.67;;;;;;;6.84;100.00;92344.88;2130900;27;20035;-76
2023/03/23 04:07:16;;;;;;;4.70;2.28;;;;;;;6.81;100.00;92343.06;2117903;27;20480;-78
2023/03/23 04:08:18;;;;;;;2.95;2.40;;;;;;;6.83;100.00;92348.69;2117918;27;20039;-77
2023/03/23 04:09:21;;;;;;;2.70;2.30;;;;;;;6.82;100.00;92337.31;2130653;27;20095;-78
2023/03/23 04:10:22;;;;;;;3.85;2.47;;;;;;;6.84;100.00;92347.53;2130185;27;20039;-78
2023/03/23 04:11:24;;;;;;;5.07;2.58;;;;;;;6.81;100.00;92345.72;2130843;27;20769;-78
2023/03/23 04:12:25;;;;;;;5.25;2.60;;;;;;;6.88;100.00;92350.13;2131101;27;20149;-77
2023/03/23 04:13:27;;;;;;;3.25;2.35;;;;;;;6.91;100.00;92355.38;2131204;27;20087;-78
2023/03/23 04:14:28;;;;;;;3.72;2.67;;;;;;;6.85;100.00;92354.38;2126433;27;20037;-77
2023/03/23 04:15:29;;;;;;;4.50;2.53;;;;;;;6.84;100.00;92354.75;2125913;27;20027;-79
2023/03/23 04:16:38;;;;;;;4.35;2.58;;;;;;;6.81;100.00;92356.34;2130333;27;20050;-77
2023/03/23 04:17:42;;;;;;;5.60;2.50;;;;;;;6.79;100.00;92354.06;2117279;27;20192;-77
2023/03/23 04:18:43;;;;;;;5.35;2.75;;;;;;;6.82;100.00;92353.25;2118361;27;20031;-76
2023/03/23 04:19:47;;;;;;;3.90;2.80;;;;;;;6.84;100.00;92355.50;2117397;27;20050;-76
2023/03/23 04:20:49;;;;;;;4.10;2.60;;;;;;;6.83;100.00;92348.69;2111114;27;20035;-76
2023/03/23 04:21:50;;;;;;;4.00;2.78;;;;;;;6.86;100.00;92344.47;2125475;27;20035;-77
2023/03/23 04:22:51;;;;;;;5.03;2.63;;;;;;;6.87;100.00;92349.38;2131601;27;20023;-76
2023/03/23 04:23:53;;;;;;;4.38;2.80;;;;;;;6.89;100.00;92348.97;2131436;27;20163;-77
2023/03/23 04:24:54;;;;;;;4.63;2.38;;;;;;;7.13;100.00;92360.25;2131470;27;20030;-76
2023/03/23 04:25:57;;;;;;;6.07;2.60;;;;;;;7.04;100.00;92358.91;2125431;27;20047;-77
2023/03/23 04:26:59;;;;;;;4.20;2.65;;;;;;;7.06;100.00;92355.81;2125267;27;20038;-77
2023/03/23 04:28:01;;;;;;;3.75;2.95;;;;;;;7.26;100.00;92359.19;2130894;27;20127;-77
2023/03/23 04:29:05;;;;;;;4.18;2.78;;;;;;;7.20;100.00;92350.22;2130986;27;20098;-79
2023/03/23 04:30:07;;;;;;;5.55;2.83;;;;;;;7.17;100.00;92355.59;2130981;27;20038;-76
2023/03/23 04:31:12;;;;;;;4.72;2.70;;;;;;;7.13;100.00;92354.94;2121791;27;20031;-77
2023/03/23 04:32:14;;;;;;;3.70;2.80;;;;;;;7.14;100.00;92362.47;2126130;27;20133;-76
2023/03/23 04:33:15;;;;;;;8.15;3.88;;;;;;;7.09;100.00;92362.22;2122619;27;20374;-76
2023/03/23 04:34:17;;;;;;;6.70;4.53;;;;;;;7.12;100.00;92362.16;2125765;27;20039;-76
2023/03/23 04:35:20;;;;;;;5.78;3.22;;;;;;;7.05;100.00;92359.63;2131166;27;20039;-76
2023/03/23 04:36:22;;;;;;;7.75;6.20;;;;;;;7.01;100.00;92359.69;2131074;27;20026;-79
2023/03/23 04:37:25;;;;;;;8.13;7.25;;;;;;;7.04;100.00;92358.16;2130718;27;20114;-79
2023/03/23 04:38:28;;;;;;;9.07;7.05;;;;;;;6.97;100.00;92358.28;2125684;27;20034;-77
2023/03/23 04:39:29;;;;;;;6.45;5.25;;;;;;;6.95;100.00;92360.63;2113014;27;20172;-76
2023/03/23 04:40:30;;;;;;;7.40;5.60;;;;;;;6.97;100.00;92360.94;2113144;27;20854;-76
2023/03/23 04:41:31;;;;;;;8.40;4.88;;;;;;;6.94;100.00;92359.88;2113094;28;20028;-77
2023/03/23 04:42:32;;;;;;;6.38;4.80;;;;;;;6.92;100.00;92364.09;2111799;28;20101;-76
2023/03/23 04:43:41;;;;;;;8.20;4.45;;;;;;;6.94;100.00;92375.06;2121621;27;20054;-76
2023/03/23 04:44:43;;;;;;;4.97;3.35;;;;;;;6.91;100.00;92367.91;2112899;28;20051;-76
2023/03/23 04:45:45;;;;;;;6.53;3.50;;;;;;;6.90;100.00;92364.50;2113418;28;20070;-76
2023/03/23 04:46:49;;;;;;;5.40;3.25;;;;;;;6.90;100.00;92366.41;2117193;27;20051;-76
2023/03/23 04:47:57;;;;;;;5.35;3.65;;;;;;;6.83;100.00;92369.94;2112817;28;20161;-77
2023/03/23 04:49:00;;;;;;;5.78;3.67;;;;;;;6.81;100.00;92369.63;2097493;28;20036;-76
2023/03/23 04:50:01;;;;;;;6.82;3.10;;;;;;;6.80;100.00;92366.22;2106122;28;20027;-76
2023/03/23 04:51:03;;;;;;;5.65;4.18;;;;;;;6.69;100.00;92370.97;2116865;27;20036;-76
2023/03/23 04:52:05;;;;;;;11.00;4.40;;;;;;;6.68;100.00;92366.09;2122782;27;20508;-76
2023/03/23 04:53:06;;;;;;;7.65;4.55;;;;;;;6.65;100.00;92359.66;2105590;28;20043;-76
2023/03/23 04:54:07;;;;;;;16.00;9.73;;;;;;;6.63;100.00;92361.22;2105725;28;20020;-77
2023/03/23 04:55:09;;;;;;;19.08;12.15;;;;;;;6.56;100.00;92357.56;2109459;28;20643;-77
2023/03/23 04:56:10;;;;;;;13.32;8.77;;;;;;;6.59;100.00;92361.31;2104601;28;20032;-76
2023/03/23 04:57:12;;;;;;;10.40;5.32;;;;;;;6.51;100.00;92366.00;2113220;28;20135;-76
2023/03/23 04:58:15;;;;;;;8.65;5.20;;;;;;;6.49;100.00;92368.31;2118057;27;20039;-76
2023/03/23 04:59:17;;;;;;;7.35;4.95;;;;;;;6.51;100.00;92370.56;2122873;27;20039;-76
2023/03/23 05:00:20;;;;;;;7.13;4.90;;;;;;;6.52;100.00;92364.84;2103676;28;20127;-76
2023/03/23 05:01:21;;;;;;;7.53;3.92;;;;;;;6.77;100.00;92368.94;2102483;28;20539;-76
2023/03/23 05:02:22;;;;;;;4.47;3.10;;;;;;;6.69;100.00;92365.66;2119458;27;20082;-76
2023/03/23 05:03:24;;;;;;;6.53;2.90;;;;;;;6.70;100.00;92366.41;2122416;27;20473;-75
2023/03/23 05:04:25;;;;;;;6.28;2.85;;;;;;;6.70;100.00;92367.16;2105119;28;20028;-77
2023/03/23 05:05:30;;;;;;;5.22;4.05;;;;;;;6.69;100.00;92359.59;2104649;28;20040;-75
2023/03/23 05:06:31;;;;;;;6.97;6.13;;;;;;;6.75;100.00;92363.28;2119911;27;20038;-75
2023/03/23 05:07:34;;;;;;;11.52;7.28;;;;;;;6.73;100.00;92360.28;2122237;27;20039;-75
2023/03/23 05:08:38;;;;;;;7.53;4.30;;;;;;;6.68;100.00;92352.81;2121855;27;20224;-76